createdAt,value
2018-07-10T00:02:12.618Z,101252.78
2018-07-10T00:07:00.119Z,101256.97
2018-07-10T00:09:45.379Z,101250.44
2018-07-10T00:12:14.986Z,101246.20
2018-07-10T00:14:44.014Z,101249.42
2018-07-10T00:17:13.626Z,101252.33
2018-07-10T00:19:43.189Z,101251.42
2018-07-10T00:22:12.379Z,101244.64
2018-07-10T00:24:41.694Z,101253.72
2018-07-10T00:27:11.024Z,101242.81
2018-07-10T00:29:40.264Z,101249.19
2018-07-10T00:32:09.352Z,101250.44
2018-07-10T00:34:38.538Z,101254.84
2018-07-10T00:37:08.014Z,101256.84
2018-07-10T00:39:37.258Z,101246.99
2018-07-10T00:42:06.442Z,101242.89
2018-07-10T00:44:35.791Z,101238.62
2018-07-10T00:47:04.942Z,101224.88
2018-07-10T00:49:34.524Z,101218.09
2018-07-10T00:52:03.758Z,101226.80
2018-07-10T00:54:32.902Z,101223.52
2018-07-10T00:57:02.126Z,101224.67
2018-07-10T00:59:31.327Z,101236.34
2018-07-10T01:02:00.599Z,101238.13
2018-07-10T01:04:30.163Z,101242.02
2018-07-10T01:06:59.545Z,101236.73
2018-07-10T01:09:28.701Z,101228.97
2018-07-10T01:11:57.930Z,101233.12
2018-07-10T01:14:27.201Z,101228.41
2018-07-10T01:16:56.499Z,101231.25
2018-07-10T01:19:25.713Z,101233.84
2018-07-10T01:21:54.850Z,101217.66
2018-07-10T01:24:23.968Z,101216.55
2018-07-10T01:26:53.360Z,101212.80
2018-07-10T01:29:27.630Z,101208.38
2018-07-10T01:31:56.914Z,101209.00
2018-07-10T01:34:26.074Z,101200.10
2018-07-10T01:36:55.664Z,101186.45
2018-07-10T01:39:24.822Z,101205.59
2018-07-10T01:41:54.066Z,101195.70
2018-07-10T01:44:23.487Z,101193.07
2018-07-10T01:46:52.557Z,101189.87
2018-07-10T01:49:21.738Z,101184.78
2018-07-10T01:51:51.002Z,101189.56
2018-07-10T01:54:20.261Z,101182.58
2018-07-10T01:56:49.468Z,101180.16
2018-07-10T01:59:18.679Z,101171.82
2018-07-10T02:01:47.882Z,101180.72
2018-07-10T02:04:18.105Z,101179.29
2018-07-10T02:06:47.334Z,101169.63
2018-07-10T02:09:16.478Z,101174.84
2018-07-10T02:11:45.690Z,101163.91
2018-07-10T02:14:15.021Z,101158.13
2018-07-10T02:16:44.184Z,101154.65
2018-07-10T02:19:13.347Z,101161.67
2018-07-10T02:21:42.570Z,101140.47
2018-07-10T02:24:12.024Z,101133.05
2018-07-10T02:26:41.303Z,101136.77
2018-07-10T02:29:10.980Z,101126.16
2018-07-10T02:31:40.113Z,101141.29
2018-07-10T02:34:09.233Z,101138.09
2018-07-10T02:36:38.462Z,101128.16
2018-07-10T02:39:07.793Z,101120.86
2018-07-10T02:41:37.045Z,101125.34
2018-07-10T02:44:06.654Z,101136.50
2018-07-10T02:46:37.487Z,101141.80
2018-07-10T02:49:22.997Z,101145.64
2018-07-10T02:52:07.622Z,101148.83
2018-07-10T02:54:40.714Z,101154.41
2018-07-10T02:57:11.661Z,101160.75
2018-07-10T02:59:42.261Z,101158.50
2018-07-10T03:02:25.173Z,101163.65
2018-07-10T03:05:02.393Z,101153.09
2018-07-10T03:07:32.106Z,101165.98
2018-07-10T03:10:01.776Z,101158.42
2018-07-10T03:12:32.613Z,101153.34
2018-07-10T03:15:07.758Z,101149.39
2018-07-10T03:17:37.070Z,101162.78
2018-07-10T03:20:07.087Z,101164.28
2018-07-10T03:22:36.379Z,101169.16
2018-07-10T03:25:05.803Z,101164.08
2018-07-10T03:27:34.921Z,101163.95
2018-07-10T03:30:04.271Z,101163.25
2018-07-10T03:32:33.595Z,101154.78
2018-07-10T03:35:03.215Z,101150.93
2018-07-10T03:37:32.627Z,101134.93
2018-07-10T03:40:02.128Z,101137.69
2018-07-10T03:42:31.296Z,101131.68
2018-07-10T03:45:00.352Z,101138.75
2018-07-10T03:47:29.925Z,101148.69
2018-07-10T03:49:59.195Z,101147.81
2018-07-10T03:52:32.940Z,101146.45
2018-07-10T03:55:11.378Z,101147.26
2018-07-10T03:57:40.907Z,101161.39
2018-07-10T04:03:18.432Z,101169.34
2018-07-10T04:05:47.780Z,101173.88
2018-07-10T04:08:17.083Z,101169.67
2018-07-10T04:10:46.268Z,101164.41
2018-07-10T04:13:18.721Z,101166.02
2018-07-10T04:15:48.860Z,101168.17
2018-07-10T04:18:21.448Z,101164.53
2018-07-10T04:20:59.367Z,101168.47
2018-07-10T04:23:33.722Z,101169.28
2018-07-10T04:26:04.862Z,101172.20
2018-07-10T04:28:35.410Z,101176.84
2018-07-10T04:31:43.608Z,101172.80
2018-07-10T04:34:12.839Z,101183.99
2018-07-10T04:36:42.107Z,101180.06
2018-07-10T04:39:11.245Z,101182.63
2018-07-10T04:41:42.685Z,101179.81
2018-07-10T04:44:13.539Z,101178.42
2018-07-10T04:46:46.788Z,101191.67
2018-07-10T04:51:43.143Z,101179.34
2018-07-10T04:54:23.342Z,101156.10
2018-07-10T04:57:01.811Z,101169.80
2018-07-10T04:59:33.957Z,101174.58
2018-07-10T05:02:03.671Z,101179.63
2018-07-10T05:04:32.739Z,101167.58
2018-07-10T05:07:06.451Z,101165.89
2018-07-10T05:09:36.714Z,101158.05
2018-07-10T05:12:06.848Z,101162.73
2018-07-10T05:14:36.239Z,101168.14
2018-07-10T05:17:05.553Z,101180.62
2018-07-10T05:19:34.734Z,101186.80
2018-07-10T05:22:03.890Z,101184.28
2018-07-10T05:24:33.388Z,101173.88
2018-07-10T05:27:02.574Z,101177.27
2018-07-10T05:29:31.785Z,101176.21
2018-07-10T05:32:00.967Z,101171.19
2018-07-10T05:34:30.255Z,101164.47
2018-07-10T05:36:59.484Z,101173.09
2018-07-10T05:39:29.899Z,101166.23
2018-07-10T05:41:58.916Z,101160.79
2018-07-10T05:44:28.281Z,101161.39
2018-07-10T05:47:02.939Z,101165.66
2018-07-10T05:49:38.543Z,101168.60
2018-07-10T05:52:07.685Z,101179.92
2018-07-10T05:54:38.443Z,101183.22
2018-07-10T05:57:08.153Z,101186.43
2018-07-10T05:59:37.321Z,101189.48
2018-07-10T06:02:06.531Z,101190.11
2018-07-10T06:04:36.387Z,101190.95
2018-07-10T06:07:05.491Z,101188.63
2018-07-10T06:09:34.611Z,101177.68
2018-07-10T06:12:04.874Z,101166.47
2018-07-10T06:14:34.101Z,101183.89
2018-07-10T06:17:03.425Z,101186.25
2018-07-10T06:19:32.799Z,101190.66
2018-07-10T06:22:01.927Z,101181.80
2018-07-10T06:24:31.074Z,101182.82
2018-07-10T06:27:01.758Z,101176.72
2018-07-10T06:29:56.122Z,101169.06
2018-07-10T06:32:25.723Z,101173.24
2018-07-10T06:35:07.429Z,101174.02
2018-07-10T06:37:41.675Z,101178.25
2018-07-10T06:40:10.920Z,101179.61
2018-07-10T06:43:22.179Z,101187.70
2018-07-10T06:45:51.883Z,101188.05
2018-07-10T06:48:21.925Z,101181.32
2018-07-10T06:50:51.418Z,101189.31
2018-07-10T06:53:23.078Z,101191.52
2018-07-10T06:55:56.542Z,101189.56
2018-07-10T06:58:26.080Z,101183.13
2018-07-10T07:00:56.375Z,101189.60
2018-07-10T07:03:26.425Z,101183.95
2018-07-10T07:05:55.770Z,101182.04
2018-07-10T07:08:25.047Z,101180.52
2018-07-10T07:10:54.372Z,101185.23
2018-07-10T07:13:23.913Z,101191.15
2018-07-10T07:15:53.154Z,101188.42
2018-07-10T07:18:22.402Z,101192.05
2018-07-10T07:20:51.596Z,101192.52
2018-07-10T07:23:20.814Z,101189.31
2018-07-10T07:25:49.939Z,101189.60
2018-07-10T07:28:19.254Z,101197.25
2018-07-10T07:30:48.437Z,101197.79
2018-07-10T07:33:17.596Z,101183.70
2018-07-10T07:35:46.631Z,101196.73
2018-07-10T07:38:17.012Z,101193.89
2018-07-10T07:40:46.462Z,101189.96
2018-07-10T07:43:15.618Z,101187.75
2018-07-10T07:45:45.183Z,101184.28
2018-07-10T07:48:14.219Z,101179.83
2018-07-10T07:50:43.463Z,101184.50
2018-07-10T07:53:12.627Z,101185.70
2018-07-10T07:55:43.037Z,101183.06
2018-07-10T07:58:12.277Z,101183.49
2018-07-10T08:00:41.519Z,101184.17
2018-07-10T08:03:10.594Z,101178.63
2018-07-10T08:05:39.782Z,101180.03
2018-07-10T08:08:09.071Z,101178.78
2018-07-10T08:10:38.397Z,101181.33
2018-07-10T08:13:07.660Z,101181.56
2018-07-10T08:15:37.139Z,101178.41
2018-07-10T08:18:06.286Z,101177.58
2018-07-10T08:20:35.486Z,101179.22
2018-07-10T08:23:04.673Z,101177.86
2018-07-10T08:25:33.701Z,101181.25
2018-07-10T08:28:02.966Z,101181.75
2018-07-10T08:30:32.321Z,101179.98
2018-07-10T08:33:01.672Z,101181.73
2018-07-10T08:35:30.988Z,101176.83
2018-07-10T08:38:00.142Z,101182.08
2018-07-10T08:40:29.562Z,101173.34
2018-07-10T08:42:59.442Z,101178.98
2018-07-10T08:45:28.699Z,101178.41
2018-07-10T08:48:00.619Z,101163.38
2018-07-10T08:50:30.159Z,101160.76
2018-07-10T08:52:59.318Z,101163.38
2018-07-10T08:55:28.650Z,101169.79
2018-07-10T08:57:57.734Z,101163.09
2018-07-10T09:00:27.059Z,101166.52
2018-07-10T09:02:56.162Z,101162.42
2018-07-10T09:05:25.441Z,101161.00
2018-07-10T09:07:54.728Z,101160.33
2018-07-10T09:10:23.851Z,101156.28
2018-07-10T09:12:53.435Z,101153.10
2018-07-10T09:15:22.627Z,101152.46
2018-07-10T09:17:51.893Z,101152.53
2018-07-10T09:20:27.470Z,101161.58
2018-07-10T09:22:56.586Z,101159.28
2018-07-10T09:25:25.690Z,101152.09
2018-07-10T09:27:55.895Z,101156.80
2018-07-10T09:30:25.165Z,101151.72
2018-07-10T09:32:54.475Z,101144.33
2018-07-10T09:35:23.718Z,101141.22
2018-07-10T09:37:53.314Z,101143.75
2018-07-10T09:40:23.298Z,101144.22
2018-07-10T09:42:58.739Z,101140.77
2018-07-10T09:45:32.511Z,101145.83
2018-07-10T09:48:02.683Z,101141.69
2018-07-10T09:50:31.907Z,101134.00
2018-07-10T09:53:02.041Z,101137.37
2018-07-10T09:55:31.746Z,101135.20
2018-07-10T09:58:01.586Z,101140.02
2018-07-10T10:00:36.076Z,101139.38
2018-07-10T10:03:05.323Z,101139.47
2018-07-10T10:05:40.419Z,101138.52
2018-07-10T10:08:09.682Z,101133.21
2018-07-10T10:10:39.099Z,101134.37
2018-07-10T10:13:08.345Z,101135.83
2018-07-10T10:15:38.098Z,101136.80
2018-07-10T10:18:08.634Z,101138.67
2018-07-10T10:20:40.326Z,101137.38
2018-07-10T10:23:13.650Z,101133.47
2018-07-10T10:25:49.651Z,101139.35
2018-07-10T10:28:19.662Z,101133.05
2018-07-10T10:30:49.055Z,101131.81
2018-07-10T10:33:18.438Z,101139.34
2018-07-10T10:35:47.684Z,101136.17
2018-07-10T10:38:17.515Z,101135.83
2018-07-10T10:40:47.795Z,101136.30
2018-07-10T10:43:17.002Z,101140.38
2018-07-10T10:45:46.407Z,101132.97
2018-07-10T10:48:16.056Z,101131.09
2018-07-10T10:50:48.893Z,101136.35
2018-07-10T10:53:19.090Z,101128.08
2018-07-10T10:55:48.362Z,101123.09
2018-07-10T10:58:18.139Z,101124.83
2018-07-10T11:00:47.435Z,101124.16
2018-07-10T11:03:16.790Z,101126.22
2018-07-10T11:05:46.346Z,101130.10
2018-07-10T11:08:15.682Z,101124.23
2018-07-10T11:10:45.874Z,101128.39
2018-07-10T11:13:15.853Z,101131.11
2018-07-10T11:15:46.282Z,101134.31
2018-07-10T11:18:32.665Z,101134.02
2018-07-10T11:21:13.014Z,101140.88
2018-07-10T11:24:04.163Z,101142.68
2018-07-10T11:26:38.198Z,101145.61
2018-07-10T11:29:07.896Z,101148.16
2018-07-10T11:31:37.803Z,101149.19
2018-07-10T11:34:07.527Z,101147.69
2018-07-10T11:36:37.240Z,101154.31
2018-07-10T11:39:10.891Z,101139.01
2018-07-10T11:41:46.594Z,101150.23
2018-07-10T11:44:18.656Z,101153.02
2018-07-10T11:46:48.375Z,101155.63
2018-07-10T11:49:17.899Z,101146.65
2018-07-10T11:51:47.487Z,101142.38
2018-07-10T11:54:17.538Z,101151.72
2018-07-10T11:56:46.673Z,101146.34
2018-07-10T11:59:15.786Z,101145.58
2018-07-10T12:01:45.264Z,101142.00
2018-07-10T12:04:14.558Z,101141.13
2018-07-10T12:06:50.110Z,101139.91
2018-07-10T12:10:30.134Z,101143.33
2018-07-10T12:12:59.367Z,101142.59
2018-07-10T12:15:28.943Z,101144.72
2018-07-10T12:17:58.886Z,101147.27
2018-07-10T12:20:35.396Z,101149.60
2018-07-10T12:23:05.436Z,101158.63
2018-07-10T12:25:37.780Z,101157.14
2018-07-10T12:28:08.049Z,101152.44
2018-07-10T12:30:37.328Z,101148.78
2018-07-10T12:33:07.028Z,101150.48
2018-07-10T12:35:36.113Z,101152.70
2018-07-10T12:38:05.415Z,101144.23
2018-07-10T12:40:35.060Z,101145.39
2018-07-10T12:43:04.388Z,101138.47
2018-07-10T12:45:33.519Z,101141.37
2018-07-10T12:48:02.711Z,101148.61
2018-07-10T12:50:31.930Z,101153.66
2018-07-10T12:53:01.204Z,101135.84
2018-07-10T12:55:30.448Z,101144.81
2018-07-10T12:57:59.832Z,101157.14
2018-07-10T13:00:31.056Z,101161.70
2018-07-10T13:03:01.287Z,101156.52
2018-07-10T13:05:32.371Z,101163.59
2018-07-10T13:08:01.521Z,101164.66
2018-07-10T13:10:30.710Z,101168.84
2018-07-10T13:12:59.766Z,101164.80
2018-07-10T13:15:29.031Z,101162.59
2018-07-10T13:17:58.881Z,101154.67
2018-07-10T13:20:28.171Z,101161.30
2018-07-10T13:22:57.438Z,101158.38
2018-07-10T13:25:26.576Z,101160.22
2018-07-10T13:27:55.901Z,101150.36
2018-07-10T13:30:25.051Z,101150.22
2018-07-10T13:32:54.200Z,101159.53
2018-07-10T13:35:23.412Z,101151.78
2018-07-10T13:37:52.796Z,101148.28
2018-07-10T13:40:22.149Z,101144.17
2018-07-10T13:42:56.522Z,101148.27
2018-07-10T13:45:26.631Z,101149.34
2018-07-10T13:47:56.011Z,101153.98
2018-07-10T13:50:29.082Z,101155.62
2018-07-10T13:53:00.526Z,101153.64
2018-07-10T13:55:32.092Z,101150.97
2018-07-10T13:58:09.079Z,101152.22
2018-07-10T14:00:41.950Z,101140.23
2018-07-10T14:03:13.174Z,101143.47
2018-07-10T14:05:46.451Z,101141.42
2018-07-10T14:08:19.659Z,101140.17
2018-07-10T14:10:53.224Z,101141.48
2018-07-10T14:13:24.093Z,101136.47
2018-07-10T14:15:53.607Z,101140.16
2018-07-10T14:18:23.570Z,101135.48
2018-07-10T14:20:55.224Z,101136.37
2018-07-10T14:23:24.364Z,101133.25
2018-07-10T14:25:53.684Z,101130.42
2018-07-10T14:28:23.033Z,101127.34
2018-07-10T14:30:52.267Z,101135.70
2018-07-10T14:33:22.035Z,101125.80
2018-07-10T14:35:51.247Z,101121.50
2018-07-10T14:38:24.221Z,101124.63
2018-07-10T14:40:53.641Z,101121.69
2018-07-10T14:43:56.298Z,101117.55
2018-07-10T14:46:26.495Z,101120.02
2018-07-10T14:48:57.984Z,101116.45
2018-07-10T14:51:45.132Z,101112.64
2018-07-10T14:54:14.188Z,101112.02
2018-07-10T14:56:43.464Z,101118.34
2018-07-10T14:59:13.073Z,101114.94
2018-07-10T15:01:42.587Z,101125.33
2018-07-10T15:04:11.901Z,101123.78
2018-07-10T15:06:41.246Z,101115.98
2018-07-10T15:09:11.440Z,101119.00
2018-07-10T15:11:41.620Z,101119.86
2018-07-10T15:14:11.900Z,101112.63
2018-07-10T15:16:46.538Z,101115.80
2018-07-10T15:19:16.495Z,101113.25
2018-07-10T15:21:45.518Z,101107.39
2018-07-10T15:24:15.130Z,101105.36
2018-07-10T15:26:47.798Z,101108.25
2018-07-10T15:29:24.929Z,101103.43
2018-07-10T15:31:54.520Z,101097.43
2018-07-10T15:34:23.694Z,101095.13
2018-07-10T15:36:53.134Z,101088.75
2018-07-10T15:39:22.835Z,101087.13
2018-07-10T15:41:52.646Z,101089.66
2018-07-10T15:44:21.890Z,101090.13
2018-07-10T15:46:51.182Z,101091.19
2018-07-10T15:49:20.409Z,101092.45
2018-07-10T15:51:49.935Z,101093.84
2018-07-10T15:54:19.023Z,101088.98
2018-07-10T15:56:48.458Z,101086.62
2018-07-10T15:59:17.683Z,101085.15
2018-07-10T16:01:47.407Z,101082.49
2018-07-10T16:04:16.551Z,101078.05
2018-07-10T16:06:45.649Z,101077.83
2018-07-10T16:09:21.088Z,101074.56
2018-07-10T16:11:58.750Z,101085.39
2018-07-10T16:14:28.873Z,101076.84
2018-07-10T16:16:58.448Z,101074.17
2018-07-10T16:19:34.751Z,101080.21
2018-07-10T16:22:11.366Z,101075.55
2018-07-10T16:24:47.483Z,101071.52
2018-07-10T16:27:20.685Z,101079.64
2018-07-10T16:29:49.807Z,101070.44
2018-07-10T16:32:18.799Z,101071.11
2018-07-10T16:34:47.750Z,101079.58
2018-07-10T16:37:17.551Z,101074.99
2018-07-10T16:39:50.206Z,101074.70
2018-07-10T16:42:25.632Z,101067.88
2018-07-10T16:44:55.082Z,101072.03
2018-07-10T16:47:30.619Z,101065.89
2018-07-10T16:50:03.463Z,101072.06
2018-07-10T16:52:40.672Z,101072.59
2018-07-10T16:55:10.383Z,101070.06
2018-07-10T16:57:39.591Z,101068.50
2018-07-10T17:00:09.397Z,101069.00
2018-07-10T17:02:38.870Z,101074.91
2018-07-10T17:05:17.017Z,101078.77
2018-07-10T17:07:46.274Z,101084.47
2018-07-10T17:10:16.193Z,101087.16
2018-07-10T17:12:45.639Z,101092.22
2018-07-10T17:15:14.752Z,101099.42
2018-07-10T17:17:43.858Z,101102.66
2018-07-10T17:20:14.296Z,101106.02
2018-07-10T17:22:44.012Z,101119.14
2018-07-10T17:25:14.336Z,101117.06
2018-07-10T17:27:49.363Z,101111.94
2018-07-10T17:30:19.463Z,101119.11
2018-07-10T17:32:48.870Z,101124.16
2018-07-10T17:35:19.369Z,101123.73
2018-07-10T17:37:50.234Z,101128.16
2018-07-10T17:40:22.342Z,101117.47
2018-07-10T17:42:52.633Z,101132.56
2018-07-10T17:45:23.843Z,101129.36
2018-07-10T17:47:53.395Z,101135.66
2018-07-10T17:50:23.266Z,101137.34
2018-07-10T17:52:52.500Z,101134.39
2018-07-10T17:55:22.055Z,101136.41
2018-07-10T17:57:55.105Z,101139.38
2018-07-10T18:00:24.390Z,101139.14
2018-07-10T18:02:53.704Z,101139.02
2018-07-10T18:05:28.266Z,101128.02
2018-07-10T18:07:57.515Z,101131.55
2018-07-10T18:10:26.823Z,101128.92
2018-07-10T18:12:56.199Z,101137.93
2018-07-10T18:15:25.577Z,101134.00
2018-07-10T18:17:54.978Z,101136.59
2018-07-10T18:20:25.248Z,101133.78
2018-07-10T18:22:54.392Z,101126.73
2018-07-10T18:25:23.846Z,101135.30
2018-07-10T18:27:53.031Z,101136.52
2018-07-10T18:30:23.428Z,101138.63
2018-07-10T18:32:55.624Z,101136.16
2018-07-10T18:35:28.259Z,101135.92
2018-07-10T18:37:57.803Z,101145.20
2018-07-10T18:40:28.060Z,101138.02
2018-07-10T18:42:58.413Z,101144.25
2018-07-10T18:45:32.376Z,101144.76
2018-07-10T18:48:01.756Z,101149.16
2018-07-10T18:50:31.731Z,101149.89
2018-07-10T18:53:01.665Z,101151.55
2018-07-10T18:55:30.818Z,101146.41
2018-07-10T18:58:06.476Z,101146.08
2018-07-10T19:00:51.733Z,101151.88
2018-07-10T19:03:21.149Z,101155.86
2018-07-10T19:05:54.068Z,101155.36
2018-07-10T19:08:23.317Z,101156.23
2018-07-10T19:10:53.248Z,101151.69
2018-07-10T19:13:22.671Z,101158.58
2018-07-10T19:15:53.351Z,101154.84
2018-07-10T19:18:22.886Z,101150.38
2018-07-10T19:20:58.742Z,101159.14
2018-07-10T19:23:36.225Z,101157.80
2018-07-10T19:26:06.620Z,101162.61
2018-07-10T19:28:36.192Z,101164.03
2018-07-10T19:31:12.210Z,101156.84
2018-07-10T19:33:43.927Z,101150.34
2018-07-10T19:36:13.363Z,101159.41
2018-07-10T19:38:42.630Z,101152.73
2018-07-10T19:41:11.779Z,101148.75
2018-07-10T19:43:40.962Z,101149.67
2018-07-10T19:46:10.943Z,101146.83
2018-07-10T19:48:40.165Z,101143.13
2018-07-10T19:51:10.663Z,101148.59
2018-07-10T19:53:39.843Z,101141.69
2018-07-10T19:56:08.957Z,101140.39
2018-07-10T19:58:42.433Z,101146.25
2018-07-10T20:01:23.813Z,101141.20
2018-07-10T20:04:02.937Z,101136.32
2018-07-10T20:06:38.811Z,101136.97
2018-07-10T20:09:13.712Z,101144.16
2018-07-10T20:11:59.759Z,101143.57
2018-07-10T20:14:31.159Z,101143.09
2018-07-10T20:17:09.315Z,101144.14
2018-07-10T20:19:42.901Z,101145.02
2018-07-10T20:22:24.371Z,101136.96
2018-07-10T20:25:07.686Z,101133.06
2018-07-10T20:27:44.417Z,101133.03
2018-07-10T20:30:24.761Z,101128.72
2018-07-10T20:33:17.892Z,101128.66
2018-07-10T20:35:50.282Z,101135.58
2018-07-10T20:38:20.264Z,101123.11
2018-07-10T20:40:49.508Z,101123.36
2018-07-10T20:43:21.657Z,101121.50
2018-07-10T20:45:52.662Z,101116.78
2018-07-10T20:48:40.638Z,101121.98
2018-07-10T20:51:11.151Z,101119.30
2018-07-10T20:54:19.988Z,101121.25
2018-07-10T20:57:29.400Z,101128.83
2018-07-10T21:00:10.635Z,101123.00
2018-07-10T21:03:23.821Z,101121.30
2018-07-10T21:06:08.478Z,101123.25
2018-07-10T21:08:44.991Z,101123.59
2018-07-10T21:11:18.532Z,101120.48
2018-07-10T21:13:55.026Z,101113.76
2018-07-10T21:17:14.075Z,101114.22
2018-07-10T21:20:00.851Z,101118.28
2018-07-10T21:23:05.458Z,101114.95
2018-07-10T21:25:41.118Z,101117.47
2018-07-10T21:28:19.211Z,101118.94
2018-07-10T21:31:13.005Z,101119.70
2018-07-10T21:33:52.420Z,101123.36
2018-07-10T21:36:28.901Z,101122.94
2018-07-10T21:39:07.476Z,101120.73
2018-07-10T21:41:47.575Z,101127.91
2018-07-10T21:44:31.193Z,101133.33
2018-07-10T21:47:05.561Z,101135.39
2018-07-10T21:49:44.652Z,101138.23
2018-07-10T21:52:14.441Z,101145.91
2018-07-10T21:54:43.536Z,101150.05
2018-07-10T21:57:14.070Z,101147.73
2018-07-10T21:59:52.386Z,101156.77
2018-07-10T22:02:21.749Z,101163.89
2018-07-10T22:04:54.615Z,101158.41
2018-07-10T22:07:26.220Z,101160.05
2018-07-10T22:09:58.812Z,101154.31
2018-07-10T22:12:29.556Z,101158.20
2018-07-10T22:15:01.151Z,101151.76
2018-07-10T22:17:32.611Z,101156.73
2018-07-10T22:20:02.221Z,101151.45
2018-07-10T22:22:32.518Z,101159.84
2018-07-10T22:25:04.102Z,101163.80
2018-07-10T22:27:33.244Z,101159.24
2018-07-10T22:30:07.566Z,101164.22
2018-07-10T22:32:44.976Z,101158.24
2018-07-10T22:35:15.465Z,101165.20
2018-07-10T22:37:44.678Z,101163.48
2018-07-10T22:40:13.920Z,101162.72
2018-07-10T22:42:42.960Z,101158.22
2018-07-10T22:45:12.186Z,101160.77
2018-07-10T22:47:42.183Z,101160.23
2018-07-10T22:50:27.546Z,101152.16
2018-07-10T22:53:00.527Z,101151.53
2018-07-10T22:55:31.650Z,101152.37
2018-07-10T22:58:09.529Z,101153.34
2018-07-10T23:00:40.587Z,101144.48
2018-07-10T23:03:18.464Z,101141.20
2018-07-10T23:05:48.426Z,101139.34
2018-07-10T23:08:21.187Z,101144.59
2018-07-10T23:10:50.631Z,101139.95
2018-07-10T23:13:20.226Z,101138.85
2018-07-10T23:15:50.315Z,101130.53
2018-07-10T23:18:20.069Z,101123.10
2018-07-10T23:20:49.397Z,101121.66
2018-07-10T23:23:19.515Z,101117.91
2018-07-10T23:25:48.941Z,101111.34
2018-07-10T23:28:18.310Z,101110.09
2018-07-10T23:30:47.422Z,101110.67
2018-07-10T23:33:17.970Z,101107.33
2018-07-10T23:35:54.544Z,101109.63
2018-07-10T23:38:39.584Z,101101.06
2018-07-10T23:41:14.158Z,101097.80
2018-07-10T23:43:46.555Z,101102.73
2018-07-10T23:46:24.614Z,101107.98
2018-07-10T23:48:55.827Z,101101.03
2018-07-10T23:51:25.068Z,101097.38
2018-07-10T23:53:55.128Z,101088.20
2018-07-10T23:56:24.430Z,101084.87
2018-07-10T23:58:53.834Z,101082.30
